Time;durP1;ratioP1;P1;durP2;ratioP2;P2;SDS_P1;SDS_P2;PMS_P1;PMS_P2;Temp;Humidity;BMP_temperature;BMP_pressure;BME280_temperature;BME280_humidity;BME280_pressure;Samples;Min_cycle;Max_cycle;Signal;HPM_P1;HPM_P2
2022/10/31 00:01:22;;;;;;;1999.90;999.90;;;11.50;99.90;;;;;;5089727;28;20134;-64
2022/10/31 00:03:48;;;;;;;1999.90;999.90;;;11.50;99.90;;;;;;5081465;28;20504;-65
2022/10/31 00:06:15;;;;;;;1999.90;999.90;;;11.50;99.90;;;;;;5083810;28;20059;-64
2022/10/31 00:08:40;;;;;;;1999.90;999.90;;;11.50;99.90;;;;;;5079391;28;20052;-65
2022/10/31 00:11:09;;;;;;;1999.90;999.90;;;11.50;99.90;;;;;;5087274;28;20567;-64
2022/10/31 00:13:35;;;;;;;1999.90;999.90;;;11.40;99.90;;;;;;5088011;28;20031;-64
2022/10/31 00:16:01;;;;;;;1999.90;999.90;;;11.40;99.90;;;;;;5079761;28;20035;-65
2022/10/31 00:18:26;;;;;;;1999.90;999.90;;;11.50;99.90;;;;;;5083009;28;20048;-64
2022/10/31 00:21:00;;;;;;;1999.90;999.90;;;11.50;99.90;;;;;;5082163;28;20047;-65
2022/10/31 00:23:25;;;;;;;1999.90;999.90;;;11.50;99.90;;;;;;5083917;28;20130;-64
2022/10/31 00:25:51;;;;;;;1999.90;999.90;;;11.60;99.90;;;;;;5084446;28;20050;-64
2022/10/31 00:28:16;;;;;;;1999.90;999.90;;;11.60;99.90;;;;;;5094259;28;20390;-65
2022/10/31 00:30:42;;;;;;;1999.90;999.90;;;11.60;99.90;;;;;;5078068;28;20297;-65
2022/10/31 00:33:07;;;;;;;1999.90;999.90;;;11.60;99.90;;;;;;5089640;28;20043;-64
2022/10/31 00:35:33;;;;;;;1999.90;999.90;;;11.50;99.90;;;;;;5086697;28;20040;-64
2022/10/31 00:37:59;;;;;;;1999.90;999.90;;;11.50;99.90;;;;;;5085229;28;20131;-64
2022/10/31 00:40:24;;;;;;;1999.90;999.90;;;11.50;99.90;;;;;;5082956;28;20063;-64
2022/10/31 00:42:50;;;;;;;1999.90;999.90;;;11.60;99.90;;;;;;5084720;28;20058;-65
2022/10/31 00:45:15;;;;;;;1999.90;999.90;;;11.50;99.90;;;;;;5083177;28;20759;-64
2022/10/31 00:47:41;;;;;;;1999.90;999.90;;;11.50;99.90;;;;;;5085976;28;20667;-65
2022/10/31 00:50:07;;;;;;;1999.90;999.90;;;11.50;99.90;;;;;;5079308;28;20039;-64
2022/10/31 00:52:33;;;;;;;1999.90;999.90;;;11.40;99.90;;;;;;5083556;28;20105;-65
2022/10/31 00:54:58;;;;;;;1999.90;999.90;;;11.40;99.90;;;;;;5097528;28;20052;-64
2022/10/31 00:57:24;;;;;;;1999.90;999.90;;;11.30;99.90;;;;;;5078946;28;20047;-64
2022/10/31 00:59:49;;;;;;;1999.90;999.90;;;11.30;99.90;;;;;;5100242;28;20046;-64
2022/10/31 01:02:15;;;;;;;1999.90;999.90;;;11.30;99.90;;;;;;5083037;28;20083;-64
2022/10/31 01:04:40;;;;;;;1999.90;999.90;;;11.30;99.90;;;;;;5093080;28;20040;-64
2022/10/31 01:07:06;;;;;;;1999.90;999.90;;;11.30;99.90;;;;;;5065083;28;20127;-64
2022/10/31 01:09:32;;;;;;;1999.90;999.90;;;11.20;99.90;;;;;;5100025;28;20047;-64
2022/10/31 01:11:57;;;;;;;1999.90;999.90;;;11.20;99.90;;;;;;5086447;28;20044;-64
2022/10/31 01:14:23;;;;;;;1999.90;999.90;;;11.30;99.90;;;;;;5080220;28;20044;-65
2022/10/31 01:16:48;;;;;;;1999.90;999.90;;;11.30;99.90;;;;;;5083945;28;20060;-64
2022/10/31 01:19:14;;;;;;;1999.90;999.90;;;11.30;99.90;;;;;;5086080;28;20056;-65
2022/10/31 01:21:39;;;;;;;1999.90;999.90;;;11.30;99.90;;;;;;5103584;28;20040;-64
2022/10/31 01:24:05;;;;;;;1999.90;999.90;;;11.30;99.90;;;;;;5088794;28;20044;-64
2022/10/31 01:26:32;;;;;;;1999.90;999.90;;;11.30;99.90;;;;;;5073787;28;20036;-64
2022/10/31 01:29:01;;;;;;;1999.90;999.90;;;11.30;99.90;;;;;;5085108;28;20050;-64
2022/10/31 01:31:29;;;;;;;1999.90;999.90;;;11.40;99.90;;;;;;5064727;28;20384;-64
2022/10/31 01:33:55;;;;;;;1999.90;999.90;;;11.40;99.90;;;;;;5082379;28;20392;-64
2022/10/31 01:36:24;;;;;;;1999.90;999.90;;;11.40;99.90;;;;;;5097399;28;20040;-65
2022/10/31 01:38:51;;;;;;;1999.90;999.90;;;11.40;99.90;;;;;;5085200;28;20042;-64
2022/10/31 01:41:19;;;;;;;1999.90;999.90;;;11.40;99.90;;;;;;5083168;28;20048;-65
2022/10/31 01:43:50;;;;;;;1999.90;999.90;;;11.30;99.90;;;;;;5085709;28;20044;-65
2022/10/31 01:46:20;;;;;;;1999.90;999.90;;;11.30;99.90;;;;;;5087154;28;20052;-64
2022/10/31 01:48:46;;;;;;;1999.90;999.90;;;11.30;99.90;;;;;;5082502;28;20131;-64
2022/10/31 01:51:13;;;;;;;1999.90;999.90;;;11.30;99.90;;;;;;5086117;28;20043;-64
2022/10/31 01:53:39;;;;;;;1999.90;999.90;;;11.30;99.90;;;;;;5064448;28;20047;-65
2022/10/31 01:56:05;;;;;;;1999.90;999.90;;;11.20;99.90;;;;;;5085889;28;20400;-64
2022/10/31 01:58:31;;;;;;;1999.90;999.90;;;11.20;99.90;;;;;;5074818;28;20506;-64
2022/10/31 02:00:59;;;;;;;1999.90;999.90;;;11.20;99.90;;;;;;5084663;28;20044;-64
2022/10/31 02:03:26;;;;;;;1999.90;999.90;;;11.20;99.90;;;;;;5081960;28;20553;-64
2022/10/31 02:05:55;;;;;;;1999.90;999.90;;;11.20;99.90;;;;;;5074711;28;20044;-65
2022/10/31 02:08:29;;;;;;;1999.90;999.90;;;11.20;99.90;;;;;;5078560;28;20518;-64
2022/10/31 02:10:57;;;;;;;1999.90;999.90;;;11.20;99.90;;;;;;5085106;28;20029;-65
2022/10/31 02:13:24;;;;;;;1999.90;999.90;;;11.20;99.90;;;;;;5073610;28;20047;-64
2022/10/31 02:15:53;;;;;;;1999.90;999.90;;;11.20;99.90;;;;;;5079379;28;20377;-64
2022/10/31 02:18:20;;;;;;;1999.90;999.90;;;11.20;99.90;;;;;;5086330;28;20115;-64
2022/10/31 02:20:58;;;;;;;1999.90;999.90;;;11.10;99.90;;;;;;5080921;28;20040;-64
2022/10/31 02:24:08;;;;;;;1999.90;999.90;;;11.10;99.90;;;;;;5081882;28;20044;-64
2022/10/31 02:27:05;;;;;;;1999.90;999.90;;;11.00;99.90;;;;;;5084198;28;20519;-64
2022/10/31 02:29:53;;;;;;;1999.90;999.90;;;11.00;99.90;;;;;;5084162;28;20275;-65
2022/10/31 02:32:47;;;;;;;1999.90;999.90;;;11.00;99.90;;;;;;5075433;28;20044;-64
2022/10/31 02:35:24;;;;;;;1999.90;999.90;;;11.00;99.90;;;;;;5081367;28;20047;-65
2022/10/31 02:38:11;;;;;;;1999.90;999.90;;;11.00;99.90;;;;;;5099164;28;20044;-64
2022/10/31 02:40:45;;;;;;;1999.90;999.90;;;10.90;99.90;;;;;;5083308;28;20050;-64
2022/10/31 02:43:27;;;;;;;1999.90;999.90;;;10.90;99.90;;;;;;5086291;28;20078;-65
2022/10/31 02:45:59;;;;;;;1999.90;999.90;;;10.90;99.90;;;;;;5079370;28;20063;-65
2022/10/31 02:48:28;;;;;;;1999.90;999.90;;;10.90;99.90;;;;;;5081811;28;20060;-64
2022/10/31 02:51:02;;;;;;;1999.90;999.90;;;10.80;99.90;;;;;;5084495;28;20032;-64
2022/10/31 02:53:33;;;;;;;1999.90;999.90;;;10.80;99.90;;;;;;5080035;28;20035;-64
2022/10/31 02:56:10;;;;;;;1999.90;999.90;;;10.80;99.90;;;;;;5080561;28;20040;-64
2022/10/31 02:58:40;;;;;;;1999.90;999.90;;;10.70;99.90;;;;;;5083267;28;20050;-64
2022/10/31 03:01:24;;;;;;;1999.90;999.90;;;10.70;99.90;;;;;;5081852;28;20135;-64
2022/10/31 03:03:52;;;;;;;1999.90;999.90;;;10.70;99.90;;;;;;5074568;28;20052;-65
2022/10/31 03:06:29;;;;;;;1999.90;999.90;;;10.70;99.90;;;;;;5075518;28;20044;-64
2022/10/31 03:09:09;;;;;;;1999.90;999.90;;;10.60;99.90;;;;;;5083723;28;20036;-65
2022/10/31 03:11:55;;;;;;;1999.90;999.90;;;10.60;99.90;;;;;;5076082;28;20037;-64
2022/10/31 03:14:47;;;;;;;1999.90;999.90;;;10.60;99.90;;;;;;5074771;28;20040;-65
2022/10/31 03:17:26;;;;;;;1999.90;999.90;;;10.60;99.90;;;;;;5069223;28;20048;-65
2022/10/31 03:19:55;;;;;;;1999.90;999.90;;;10.60;99.90;;;;;;5064519;28;20055;-64
2022/10/31 03:22:27;;;;;;;1999.90;999.90;;;10.50;99.90;;;;;;5098529;28;20043;-65
2022/10/31 03:24:54;;;;;;;1999.90;999.90;;;10.50;99.90;;;;;;5063104;28;20095;-64
2022/10/31 03:27:26;;;;;;;1999.90;999.90;;;10.40;99.90;;;;;;5079533;28;20089;-65
2022/10/31 03:29:58;;;;;;;1999.90;999.90;;;10.40;99.90;;;;;;5080185;28;20040;-65
2022/10/31 03:32:31;;;;;;;1999.90;999.90;;;10.40;99.90;;;;;;5080491;28;20067;-65
2022/10/31 03:35:00;;;;;;;1999.90;999.90;;;10.30;99.90;;;;;;5085756;28;20123;-65
2022/10/31 03:37:29;;;;;;;1999.90;999.90;;;10.30;99.90;;;;;;5082884;28;20523;-65
2022/10/31 03:39:58;;;;;;;1999.90;999.90;;;10.30;99.90;;;;;;5080970;28;20170;-64
2022/10/31 03:42:25;;;;;;;1999.90;999.90;;;10.40;99.90;;;;;;5080943;28;20137;-65
2022/10/31 03:45:10;;;;;;;1999.90;999.90;;;10.40;99.90;;;;;;5083834;28;20081;-64
2022/10/31 03:47:37;;;;;;;1999.90;999.90;;;10.40;99.90;;;;;;5080964;28;20040;-65
2022/10/31 03:50:05;;;;;;;1999.90;999.90;;;10.30;99.90;;;;;;5083067;28;20040;-64
2022/10/31 03:52:36;;;;;;;1999.90;999.90;;;10.30;99.90;;;;;;5082923;28;20040;-65
2022/10/31 03:55:12;;;;;;;1999.90;999.90;;;10.30;99.90;;;;;;5083298;28;20404;-65
2022/10/31 03:57:49;;;;;;;1999.90;999.90;;;10.30;99.90;;;;;;5076513;28;20058;-64
2022/10/31 04:00:16;;;;;;;1999.90;999.90;;;10.20;99.90;;;;;;5080727;28;20428;-64
2022/10/31 04:02:48;;;;;;;1999.90;999.90;;;10.20;99.90;;;;;;5085442;28;20448;-65
2022/10/31 04:05:16;;;;;;;1999.90;999.90;;;10.10;99.90;;;;;;5082337;28;20109;-64
2022/10/31 04:07:47;;;;;;;1999.90;999.90;;;10.10;99.90;;;;;;5081617;28;20133;-64
2022/10/31 04:10:14;;;;;;;1999.90;999.90;;;10.10;99.90;;;;;;5083284;28;20147;-65
2022/10/31 04:12:45;;;;;;;1999.90;999.90;;;10.10;99.90;;;;;;5082055;28;20457;-64
2022/10/31 04:15:11;;;;;;;1999.90;999.90;;;10.00;99.90;;;;;;5083176;28;20060;-65
2022/10/31 04:17:41;;;;;;;1999.90;999.90;;;9.90;99.90;;;;;;5085993;28;20040;-65
2022/10/31 04:20:07;;;;;;;1999.90;999.90;;;9.90;99.90;;;;;;5082454;28;20128;-64
2022/10/31 04:22:33;;;;;;;1999.90;999.90;;;9.80;99.90;;;;;;5081668;28;20545;-64
2022/10/31 04:24:58;;;;;;;1999.90;999.90;;;9.80;99.90;;;;;;5090081;28;20040;-65
2022/10/31 04:27:24;;;;;;;1999.90;999.90;;;9.70;99.90;;;;;;5086598;28;20491;-64
2022/10/31 04:29:49;;;;;;;1999.90;999.90;;;9.70;99.90;;;;;;5082227;28;20072;-65
2022/10/31 04:32:15;;;;;;;1999.90;999.90;;;9.60;99.90;;;;;;5079296;28;20092;-65
2022/10/31 04:34:40;;;;;;;1999.90;999.90;;;9.60;99.90;;;;;;5086452;28;20063;-65
2022/10/31 04:37:06;;;;;;;1999.90;999.90;;;9.50;99.90;;;;;;5087393;28;20059;-65
2022/10/31 04:39:31;;;;;;;1999.90;999.90;;;9.50;99.90;;;;;;5079872;28;20110;-65
2022/10/31 04:41:57;;;;;;;1999.90;999.90;;;9.40;99.90;;;;;;5075929;28;20064;-65
2022/10/31 04:44:22;;;;;;;1999.90;999.90;;;9.30;99.90;;;;;;5097362;28;20102;-65
2022/10/31 04:46:48;;;;;;;1999.90;999.90;;;9.30;99.90;;;;;;5085075;28;20055;-65
2022/10/31 04:49:13;;;;;;;1999.90;999.90;;;9.30;99.90;;;;;;5076180;28;20133;-64
2022/10/31 04:51:39;;;;;;;1999.90;999.90;;;9.20;99.90;;;;;;5082033;28;20484;-65
2022/10/31 04:54:04;;;;;;;1999.90;999.90;;;9.20;99.90;;;;;;5086626;28;20529;-65
2022/10/31 04:56:30;;;;;;;1999.90;999.90;;;9.10;99.90;;;;;;5088594;28;20043;-64
2022/10/31 04:58:56;;;;;;;1999.90;999.90;;;9.10;99.90;;;;;;5077131;28;20072;-64
2022/10/31 05:01:21;;;;;;;1999.90;999.90;;;9.10;99.90;;;;;;5087709;28;20032;-65
2022/10/31 05:03:47;;;;;;;1999.90;999.90;;;9.10;99.90;;;;;;5087580;28;20471;-64
2022/10/31 05:06:12;;;;;;;1999.90;999.90;;;9.00;99.90;;;;;;5086257;28;20036;-65
2022/10/31 05:08:38;;;;;;;1999.90;999.90;;;9.00;99.90;;;;;;5080832;28;20086;-65
2022/10/31 05:11:04;;;;;;;1999.90;999.90;;;9.00;99.90;;;;;;5078600;28;20078;-65
2022/10/31 05:13:30;;;;;;;1999.90;999.90;;;8.90;99.90;;;;;;5087235;28;20044;-65
2022/10/31 05:15:56;;;;;;;1999.90;999.90;;;8.90;99.90;;;;;;5075574;28;20032;-65
2022/10/31 05:18:22;;;;;;;1999.90;999.90;;;8.90;99.90;;;;;;5085942;28;20514;-65
2022/10/31 05:20:48;;;;;;;1999.90;999.90;;;8.90;99.90;;;;;;5086289;28;20043;-65
2022/10/31 05:23:13;;;;;;;1999.90;999.90;;;8.90;99.90;;;;;;5088207;28;20393;-65
2022/10/31 05:25:40;;;;;;;1999.90;999.90;;;8.90;99.90;;;;;;5083522;28;20415;-65
2022/10/31 05:28:06;;;;;;;1999.90;999.90;;;8.90;99.90;;;;;;5083646;28;20052;-64
2022/10/31 05:30:33;;;;;;;1999.90;999.90;;;8.90;99.90;;;;;;5083573;28;20634;-64
2022/10/31 05:32:59;;;;;;;1999.90;999.90;;;8.90;99.90;;;;;;5086005;28;20032;-64
2022/10/31 05:35:30;;;;;;;1999.90;999.90;;;8.90;99.90;;;;;;5077098;28;20102;-64
2022/10/31 05:38:00;;;;;;;1999.90;999.90;;;8.90;99.90;;;;;;5085125;28;20074;-64
2022/10/31 05:40:26;;;;;;;1999.90;999.90;;;9.00;99.90;;;;;;5083717;28;20412;-64
2022/10/31 05:42:53;;;;;;;1999.90;999.90;;;8.90;99.90;;;;;;5088081;28;20043;-64
2022/10/31 05:45:20;;;;;;;1999.90;999.90;;;8.90;99.90;;;;;;5079080;28;20048;-65
2022/10/31 05:48:02;;;;;;;1999.90;999.90;;;9.00;99.90;;;;;;5082904;28;20105;-64
2022/10/31 05:50:30;;;;;;;1999.90;999.90;;;8.90;99.90;;;;;;5059815;28;19924;-65
2022/10/31 05:52:57;;;;;;;1999.90;999.90;;;8.90;99.90;;;;;;5083571;28;20385;-64
2022/10/31 05:55:24;;;;;;;1999.90;999.90;;;8.90;99.90;;;;;;5079875;28;20082;-65
2022/10/31 05:57:50;;;;;;;1999.90;999.90;;;8.90;99.90;;;;;;5080110;28;20038;-64
2022/10/31 06:00:15;;;;;;;1999.90;999.90;;;8.80;99.90;;;;;;5076734;28;20040;-64
2022/10/31 06:02:41;;;;;;;1999.90;999.90;;;8.80;99.90;;;;;;5083638;28;20068;-65
2022/10/31 06:05:07;;;;;;;1999.90;999.90;;;8.80;99.90;;;;;;5083117;28;20514;-64
2022/10/31 06:07:34;;;;;;;1999.90;999.90;;;8.80;99.90;;;;;;5084705;28;20742;-65
2022/10/31 06:10:00;;;;;;;1999.90;999.90;;;8.70;99.90;;;;;;5083515;28;20496;-64
2022/10/31 06:12:26;;;;;;;1999.90;999.90;;;8.70;99.90;;;;;;5082537;28;20118;-64
2022/10/31 06:14:51;;;;;;;1999.90;999.90;;;8.70;99.90;;;;;;5075912;28;20111;-64
2022/10/31 06:17:17;;;;;;;1999.90;999.90;;;8.70;99.90;;;;;;5085403;28;20048;-65
2022/10/31 06:19:42;;;;;;;1999.90;999.90;;;8.60;99.90;;;;;;5100067;28;20048;-65
2022/10/31 06:22:08;;;;;;;1999.90;999.90;;;8.60;99.90;;;;;;5086084;28;20124;-65
2022/10/31 06:24:34;;;;;;;1999.90;999.90;;;8.60;99.90;;;;;;5079992;28;20040;-64
2022/10/31 06:26:59;;;;;;;1999.90;999.90;;;8.60;99.90;;;;;;5080534;28;20060;-64
2022/10/31 06:29:25;;;;;;;1999.90;999.90;;;8.50;99.90;;;;;;5085094;28;20044;-65
2022/10/31 06:31:53;;;;;;;1999.90;999.90;;;8.50;99.90;;;;;;5080111;28;20044;-65
2022/10/31 06:34:19;;;;;;;1999.90;999.90;;;8.50;99.90;;;;;;5083135;28;20039;-65
2022/10/31 06:36:46;;;;;;;1999.90;999.90;;;8.50;99.90;;;;;;5079752;28;20043;-65
2022/10/31 06:39:12;;;;;;;1999.90;999.90;;;8.50;99.90;;;;;;5083636;28;20044;-65
2022/10/31 06:41:39;;;;;;;1999.90;999.90;;;8.50;99.90;;;;;;5076964;28;20056;-65
2022/10/31 06:44:05;;;;;;;1999.90;999.90;;;8.50;99.90;;;;;;5083848;28;20062;-64
2022/10/31 06:46:31;;;;;;;1999.90;999.90;;;8.60;99.90;;;;;;5084778;28;20068;-65
2022/10/31 06:48:57;;;;;;;1999.90;999.90;;;8.60;99.90;;;;;;5084809;28;20510;-64
2022/10/31 06:51:22;;;;;;;1999.90;999.90;;;8.70;99.90;;;;;;5081198;28;20044;-64
2022/10/31 06:53:48;;;;;;;1999.90;999.90;;;8.70;99.90;;;;;;5075275;28;20043;-65
2022/10/31 06:56:13;;;;;;;1999.90;999.90;;;8.70;99.90;;;;;;5095428;28;20059;-64
2022/10/31 06:58:39;;;;;;;1999.90;999.90;;;8.80;99.90;;;;;;5085068;28;20564;-65
2022/10/31 07:01:04;;;;;;;1999.90;999.90;;;8.80;99.90;;;;;;5082884;28;20609;-65
2022/10/31 07:03:30;;;;;;;1999.90;999.90;;;8.90;99.90;;;;;;5082593;28;20032;-65
2022/10/31 07:05:56;;;;;;;1999.90;999.90;;;9.00;99.90;;;;;;5067757;28;20487;-65
2022/10/31 07:08:22;;;;;;;1999.90;999.90;;;9.00;99.90;;;;;;5084553;28;20040;-65
2022/10/31 07:10:56;;;;;;;1999.90;999.90;;;9.00;99.90;;;;;;5068207;28;20462;-65
2022/10/31 07:13:25;;;;;;;1999.90;999.90;;;9.00;99.90;;;;;;5085037;28;20059;-65
2022/10/31 07:15:58;;;;;;;1999.90;999.90;;;9.10;99.90;;;;;;5085034;28;20133;-65
2022/10/31 07:18:24;;;;;;;1999.90;999.90;;;9.10;99.90;;;;;;5081977;28;20100;-65
2022/10/31 07:20:49;;;;;;;1999.90;999.90;;;9.10;99.90;;;;;;5083204;28;20044;-65
2022/10/31 07:23:15;;;;;;;1999.90;999.90;;;9.10;99.90;;;;;;5084118;28;20048;-64
2022/10/31 07:25:41;;;;;;;1999.90;999.90;;;9.20;99.90;;;;;;5066273;28;20036;-65
2022/10/31 07:28:07;;;;;;;1999.90;999.90;;;9.20;99.90;;;;;;5078031;28;20126;-65
2022/10/31 07:30:33;;;;;;;1999.90;999.90;;;9.30;99.90;;;;;;5082712;28;20475;-65
2022/10/31 07:32:58;;;;;;;1999.90;999.90;;;9.40;99.90;;;;;;5065996;28;20112;-65
2022/10/31 07:35:28;;;;;;;1999.90;999.90;;;9.50;99.90;;;;;;5079829;28;20069;-65
2022/10/31 07:37:54;;;;;;;1999.90;999.90;;;9.50;99.90;;;;;;5085429;28;20048;-64
2022/10/31 07:40:20;;;;;;;1999.90;999.90;;;9.60;99.90;;;;;;5085366;28;20256;-65
2022/10/31 07:42:48;;;;;;;1999.90;999.90;;;9.70;99.90;;;;;;5084132;28;20047;-65
2022/10/31 07:45:16;;;;;;;1999.90;999.90;;;9.80;99.90;;;;;;5079909;28;20576;-65
2022/10/31 07:47:47;;;;;;;1999.90;999.90;;;9.80;99.90;;;;;;5082386;28;20051;-65
2022/10/31 07:50:24;;;;;;;1999.90;999.90;;;9.90;99.90;;;;;;5086423;28;20049;-65
2022/10/31 07:53:08;;;;;;;1999.90;999.90;;;10.00;99.90;;;;;;5083606;28;20040;-64
2022/10/31 07:55:34;;;;;;;1999.90;999.90;;;10.10;99.90;;;;;;5079430;28;20123;-65
2022/10/31 07:58:05;;;;;;;1999.90;999.90;;;10.20;99.90;;;;;;5082289;28;20046;-65
2022/10/31 08:00:33;;;;;;;1999.90;999.90;;;10.30;99.90;;;;;;5087775;28;20414;-65
2022/10/31 08:03:01;;;;;;;1999.90;999.90;;;10.50;99.90;;;;;;5083144;28;20024;-64
2022/10/31 08:05:26;;;;;;;1999.90;999.90;;;10.60;99.90;;;;;;5083541;28;20047;-65
2022/10/31 08:07:52;;;;;;;1999.90;999.90;;;10.70;99.90;;;;;;5076789;28;20050;-65
2022/10/31 08:10:18;;;;;;;1999.90;999.90;;;10.80;99.90;;;;;;5080200;28;20036;-65
2022/10/31 08:12:43;;;;;;;1999.90;999.90;;;10.90;99.90;;;;;;5079870;28;20032;-65
2022/10/31 08:15:09;;;;;;;1999.90;999.90;;;11.10;99.90;;;;;;5080552;28;20043;-65
2022/10/31 08:17:36;;;;;;;1999.90;999.90;;;11.30;99.90;;;;;;5084251;28;20054;-65
2022/10/31 08:20:02;;;;;;;1999.90;999.90;;;11.50;99.90;;;;;;5078799;28;20062;-65
2022/10/31 08:22:28;;;;;;;1999.90;999.90;;;11.60;99.90;;;;;;5085055;28;20065;-65
2022/10/31 08:24:53;;;;;;;1999.90;999.90;;;11.70;99.90;;;;;;5098014;28;20074;-65
2022/10/31 08:27:19;;;;;;;1999.90;999.90;;;11.70;99.90;;;;;;5060241;28;20054;-65
2022/10/31 08:29:44;;;;;;;1999.90;999.90;;;12.00;99.90;;;;;;5077343;28;20135;-65
2022/10/31 08:32:10;;;;;;;1999.90;999.90;;;12.40;99.90;;;;;;5075432;28;20036;-65
2022/10/31 08:34:35;;;;;;;1999.90;999.90;;;12.60;99.90;;;;;;5103267;28;20039;-65
2022/10/31 08:37:01;;;;;;;1999.90;999.90;;;12.90;99.90;;;;;;5082034;28;20040;-65
2022/10/31 08:39:26;;;;;;;1999.90;999.90;;;13.10;99.90;;;;;;5071338;28;20044;-65
2022/10/31 08:41:52;;;;;;;1999.90;999.90;;;13.40;99.90;;;;;;5082623;28;20134;-65
2022/10/31 08:44:18;;;;;;;1999.90;999.90;;;13.80;99.90;;;;;;5080057;28;20390;-65
2022/10/31 08:46:43;;;;;;;1999.90;999.90;;;13.90;99.90;;;;;;5087465;28;20087;-65
2022/10/31 08:49:09;;;;;;;1999.90;999.90;;;14.00;99.90;;;;;;5095365;28;20064;-65
2022/10/31 08:51:34;;;;;;;1999.90;999.90;;;14.20;99.90;;;;;;5079304;28;20109;-65
2022/10/31 08:54:00;;;;;;;1999.90;999.90;;;14.40;99.90;;;;;;5097878;28;20036;-65
2022/10/31 08:56:25;;;;;;;1999.90;999.90;;;14.40;99.90;;;;;;5077995;28;20043;-65
2022/10/31 08:58:53;;;;;;;1999.90;999.90;;;14.30;99.90;;;;;;5085236;28;20093;-65
2022/10/31 09:01:18;;;;;;;1999.90;999.90;;;14.50;99.90;;;;;;5085652;28;20416;-65
2022/10/31 09:03:44;;;;;;;1999.90;999.90;;;14.70;99.90;;;;;;5083812;28;20040;-65
2022/10/31 09:06:10;;;;;;;1999.90;999.90;;;14.60;99.90;;;;;;5082029;28;20389;-65
2022/10/31 09:08:36;;;;;;;1999.90;999.90;;;14.70;99.90;;;;;;5080625;28;20410;-65
2022/10/31 09:11:02;;;;;;;1999.90;999.90;;;14.80;99.90;;;;;;5083592;28;20116;-65
2022/10/31 09:13:28;;;;;;;1999.90;999.90;;;14.90;99.90;;;;;;5088926;28;20071;-65
2022/10/31 09:15:55;;;;;;;1999.90;999.90;;;15.00;99.90;;;;;;5076329;28;20575;-65
2022/10/31 09:18:22;;;;;;;1999.90;999.90;;;15.00;99.90;;;;;;5082341;28;20115;-65
2022/10/31 09:20:49;;;;;;;1999.90;999.90;;;15.00;99.90;;;;;;5087027;28;20040;-65
2022/10/31 09:23:20;;;;;;;1999.90;999.90;;;15.10;99.90;;;;;;5082945;28;20048;-65
2022/10/31 09:25:47;;;;;;;1999.90;999.90;;;15.20;99.90;;;;;;5087858;28;20429;-65
2022/10/31 09:28:14;;;;;;;1999.90;999.90;;;15.40;99.90;;;;;;5079490;28;20047;-65
2022/10/31 09:30:40;;;;;;;1999.90;999.90;;;15.50;99.90;;;;;;5086036;28;20151;-65
2022/10/31 09:33:15;;;;;;;1999.90;999.90;;;15.70;99.90;;;;;;5083865;28;20032;-65
2022/10/31 09:35:41;;;;;;;1999.90;999.90;;;15.90;99.90;;;;;;5083359;28;20127;-66
2022/10/31 09:38:10;;;;;;;1999.90;999.90;;;15.90;99.90;;;;;;5084238;28;20044;-66
2022/10/31 09:40:45;;;;;;;1999.90;999.90;;;15.80;99.90;;;;;;5086321;28;20051;-65
2022/10/31 09:43:42;;;;;;;1999.90;999.90;;;15.90;99.90;;;;;;5083411;28;20149;-65
2022/10/31 09:46:08;;;;;;;1999.90;999.90;;;15.90;99.90;;;;;;5086533;28;20408;-66
2022/10/31 09:49:05;;;;;;;1999.90;999.90;;;15.80;99.90;;;;;;5086782;28;20040;-66
2022/10/31 09:51:47;;;;;;;1999.90;999.90;;;15.70;99.90;;;;;;5079223;28;20040;-66
2022/10/31 09:54:52;;;;;;;1999.90;999.90;;;15.50;99.90;;;;;;5082611;28;20052;-66
2022/10/31 09:57:24;;;;;;;1999.90;999.90;;;15.60;99.90;;;;;;5092722;28;20055;-66
2022/10/31 09:59:50;;;;;;;1999.90;999.90;;;15.40;99.90;;;;;;5072062;28;20036;-65
2022/10/31 10:02:51;;;;;;;1999.90;999.90;;;15.40;99.90;;;;;;5072556;28;20491;-65
2022/10/31 10:05:41;;;;;;;1999.90;999.90;;;15.40;99.90;;;;;;5084337;28;20039;-66
2022/10/31 10:08:14;;;;;;;1999.90;999.90;;;15.50;99.90;;;;;;5072813;28;20041;-65
2022/10/31 10:11:07;;;;;;;1999.90;999.90;;;15.60;99.90;;;;;;5081768;28;20052;-65
2022/10/31 10:13:53;;;;;;;1999.90;999.90;;;15.80;99.90;;;;;;5076635;28;20048;-65
2022/10/31 10:16:36;;;;;;;1999.90;999.90;;;15.90;99.90;;;;;;5084646;28;20036;-65
2022/10/31 10:19:08;;;;;;;;;;;16.00;99.90;;;;;;5090669;28;20043;-65
2022/10/31 10:22:01;;;;;;;1999.90;999.90;;;16.20;99.90;;;;;;5073315;28;19927;-65
2022/10/31 10:24:26;;;;;;;1999.90;999.90;;;16.30;99.90;;;;;;5080039;28;20044;-65
2022/10/31 10:27:13;;;;;;;1999.90;999.90;;;16.40;99.90;;;;;;5078943;28;20483;-65
2022/10/31 10:30:00;;;;;;;1999.90;999.90;;;16.50;99.90;;;;;;5083326;28;20048;-65
2022/10/31 10:32:37;;;;;;;1999.90;999.90;;;16.70;99.90;;;;;;5074452;28;20064;-65
2022/10/31 10:35:45;;;;;;;1999.90;999.90;;;16.70;99.90;;;;;;5078331;28;20055;-65
2022/10/31 10:38:23;;;;;;;1999.90;999.90;;;16.60;99.90;;;;;;5023479;28;20099;-65
2022/10/31 10:40:51;;;;;;;1999.90;999.90;;;16.40;99.90;;;;;;5014244;28;20401;-65
2022/10/31 10:43:26;;;;;;;1999.90;999.90;;;16.30;99.90;;;;;;5000159;28;20176;-65
2022/10/31 10:49:10;;;;;;;1999.90;999.90;;;16.10;99.90;;;;;;5021269;28;20101;-65
2022/10/31 10:51:54;;;;;;;1999.90;999.90;;;16.10;99.90;;;;;;5005419;28;20049;-65
2022/10/31 10:54:41;;;;;;;1999.90;999.90;;;16.10;99.90;;;;;;5021683;28;20041;-65
2022/10/31 10:57:28;;;;;;;1999.90;999.90;;;16.10;99.90;;;;;;5023354;28;20468;-65
2022/10/31 10:59:54;;;;;;;1999.90;999.90;;;16.10;99.90;;;;;;5016368;28;20049;-65
2022/10/31 11:02:26;;;;;;;1999.90;999.90;;;16.10;99.90;;;;;;5023160;28;20053;-65
2022/10/31 11:04:57;;;;;;;1999.90;999.90;;;16.30;99.90;;;;;;5018532;28;20116;-65
2022/10/31 11:07:22;;;;;;;1999.90;999.90;;;16.50;99.90;;;;;;5023370;28;20124;-65
2022/10/31 11:09:48;;;;;;;1999.90;999.90;;;16.50;99.90;;;;;;5072323;28;20159;-65
2022/10/31 11:12:24;;;;;;;1999.90;999.90;;;16.50;99.90;;;;;;5081786;28;20540;-66
2022/10/31 11:14:59;;;;;;;1999.90;999.90;;;16.30;99.90;;;;;;5079746;28;20593;-65
2022/10/31 11:17:38;;;;;;;1999.90;999.90;;;16.30;99.90;;;;;;5059625;28;20476;-65
2022/10/31 11:20:20;;;;;;;1999.90;999.90;;;16.20;99.90;;;;;;5067286;28;20051;-65
2022/10/31 11:22:48;;;;;;;1999.90;999.90;;;16.20;99.90;;;;;;5070004;28;20434;-65
2022/10/31 11:25:19;;;;;;;1999.90;999.90;;;16.20;99.90;;;;;;5068930;28;20415;-65
2022/10/31 11:27:46;;;;;;;1999.90;999.90;;;16.20;99.90;;;;;;5068650;28;20051;-65
2022/10/31 11:30:13;;;;;;;1999.90;999.90;;;16.10;99.90;;;;;;5078890;28;20159;-65
2022/10/31 11:32:52;;;;;;;1999.90;999.90;;;16.00;99.90;;;;;;5080352;28;20047;-65
2022/10/31 11:35:19;;;;;;;1999.90;999.90;;;15.80;99.90;;;;;;5090191;28;20098;-65
2022/10/31 11:37:47;;;;;;;1999.90;999.90;;;15.80;99.90;;;;;;5063992;28;20094;-65
2022/10/31 11:40:24;;;;;;;1999.90;999.90;;;15.80;99.90;;;;;;5069589;28;20115;-66
2022/10/31 11:42:51;;;;;;;1999.90;999.90;;;15.80;99.90;;;;;;5077960;28;20059;-65
2022/10/31 11:45:30;;;;;;;1999.90;999.90;;;15.80;99.90;;;;;;5080787;28;20060;-65
2022/10/31 11:47:57;;;;;;;1999.90;999.90;;;15.90;99.90;;;;;;5075387;28;20050;-65
2022/10/31 11:50:26;;;;;;;1999.90;999.90;;;15.90;99.90;;;;;;5063659;28;20051;-65
2022/10/31 11:52:54;;;;;;;1999.90;999.90;;;16.10;99.90;;;;;;5091594;28;20044;-65
2022/10/31 11:55:37;;;;;;;1999.90;999.90;;;16.20;99.90;;;;;;5065571;28;20040;-65
2022/10/31 11:58:04;;;;;;;1999.90;999.90;;;16.30;99.90;;;;;;5071932;28;20073;-65
2022/10/31 12:00:35;;;;;;;1999.90;999.90;;;16.40;99.90;;;;;;5058728;28;20123;-65
2022/10/31 12:03:43;;;;;;;1999.90;999.90;;;16.60;99.90;;;;;;5090421;28;20128;-65
2022/10/31 12:06:18;;;;;;;1999.90;999.90;;;16.60;99.90;;;;;;5074813;28;20052;-65
2022/10/31 12:08:44;;;;;;;1999.90;999.90;;;16.60;99.90;;;;;;5077680;28;20519;-65
2022/10/31 12:11:22;;;;;;;1999.90;999.90;;;16.60;99.90;;;;;;5078306;28;20430;-65
2022/10/31 12:14:25;;;;;;;1999.90;999.90;;;16.60;99.90;;;;;;5076891;28;20487;-65
2022/10/31 12:17:06;;;;;;;1999.90;999.90;;;16.60;99.90;;;;;;5071531;28;20063;-65
2022/10/31 12:19:42;;;;;;;1999.90;999.90;;;16.70;99.90;;;;;;5069518;28;20062;-65